Time,TemperatureF,DewpointF,PressureIn,WindDirection,WindDirectionDegrees,WindSpeedMPH,WindSpeedGustMPH,Humidity,HourlyPrecipIn,Conditions,Clouds,dailyrainin,SoftwareType,DateUTC
2013-05-10 00:01:00,42.8,37.0,29.91,NE,49,1.0,-999.0,79,-99.99,,,0.00,weatherlink.com 1.10,2013-05-10 06:01:00,
2013-05-10 00:16:00,42.5,36.0,29.91,NE,50,1.0,-999.0,79,-99.99,,,0.00,weatherlink.com 1.10,2013-05-10 06:16:00,
2013-05-10 00:31:00,42.5,36.0,29.91,NE,48,2.0,-999.0,77,-99.99,,,0.00,weatherlink.com 1.10,2013-05-10 06:31:00,
2013-05-10 00:46:00,42.3,35.0,29.93,NE,51,3.0,-999.0,76,-99.99,,,0.00,weatherlink.com 1.10,2013-05-10 06:46:00,
2013-05-10 01:01:00,42.3,35.0,29.93,NE,34,1.0,-999.0,76,-99.99,,,0.00,weatherlink.com 1.10,2013-05-10 07:01:00,
2013-05-10 01:16:00,41.9,35.0,29.93,NE,37,2.0,-999.0,76,-99.99,,,0.00,weatherlink.com 1.10,2013-05-10 07:16:00,
2013-05-10 01:31:00,41.5,34.0,29.90,NE,46,0.0,-999.0,76,-99.99,,,0.00,weatherlink.com 1.10,2013-05-10 07:31:00,
2013-05-10 01:46:00,40.3,34.0,29.91,NE,46,0.0,-999.0,77,-99.99,,,0.00,weatherlink.com 1.10,2013-05-10 07:46:00,
2013-05-10 02:01:00,40.8,34.0,29.91,NE,39,0.0,-999.0,78,-99.99,,,0.00,weatherlink.com 1.10,2013-05-10 08:01:00,
2013-05-10 02:16:00,40.6,34.0,29.90,NE,39,1.0,-999.0,78,-99.99,,,0.00,weatherlink.com 1.10,2013-05-10 08:16:00,
2013-05-10 02:31:00,40.3,34.0,29.91,NNE,33,0.0,-999.0,77,-99.99,,,0.00,weatherlink.com 1.10,2013-05-10 08:31:00,
2013-05-10 02:46:00,39.6,33.0,29.91,NNE,33,0.0,-999.0,78,-99.99,,,0.00,weatherlink.com 1.10,2013-05-10 08:46:00,
2013-05-10 03:01:00,39.5,33.0,29.91,NNE,33,0.0,-999.0,77,-99.99,,,0.00,weatherlink.com 1.10,2013-05-10 09:01:00,
2013-05-10 03:16:00,38.5,32.0,29.92,NNE,33,0.0,-999.0,78,-99.99,,,0.00,weatherlink.com 1.10,2013-05-10 09:16:00,
2013-05-10 03:32:00,37.5,32.0,29.92,NNE,33,0.0,-999.0,80,-99.99,,,0.00,weatherlink.com 1.10,2013-05-10 09:32:00,
2013-05-10 03:47:00,38.0,33.0,29.92,NNE,33,0.0,-999.0,82,-99.99,,,0.00,weatherlink.com 1.10,2013-05-10 09:47:00,
2013-05-10 04:02:00,38.5,33.0,29.90,NE,48,3.0,-999.0,81,-99.99,,,0.00,weatherlink.com 1.10,2013-05-10 10:02:00,
2013-05-10 04:17:00,39.3,33.0,29.90,NE,44,1.0,-999.0,79,-99.99,,,0.00,weatherlink.com 1.10,2013-05-10 10:17:00,
2013-05-10 04:32:00,36.8,31.0,29.93,NE,37,3.0,-999.0,79,-99.99,,,0.00,weatherlink.com 1.10,2013-05-10 10:32:00,
2013-05-10 04:47:00,37.2,32.0,29.93,ENE,59,3.0,-999.0,82,-99.99,,,0.00,weatherlink.com 1.10,2013-05-10 10:47:00,
2013-05-10 05:02:00,36.0,31.0,29.93,NE,41,0.0,-999.0,81,-99.99,,,0.00,weatherlink.com 1.10,2013-05-10 11:02:00,
2013-05-10 05:17:00,36.3,32.0,29.93,NE,46,4.0,-999.0,83,-99.99,,,0.00,weatherlink.com 1.10,2013-05-10 11:17:00,
2013-05-10 05:33:00,36.6,32.0,29.94,NE,46,0.0,-999.0,82,-99.99,,,0.00,weatherlink.com 1.10,2013-05-10 11:33:00,
2013-05-10 05:48:00,36.2,31.0,29.95,NE,34,1.0,-999.0,81,-99.99,,,0.00,weatherlink.com 1.10,2013-05-10 11:48:00,
2013-05-10 06:03:00,36.6,32.0,29.95,ENE,62,3.0,-999.0,82,-99.99,,,0.00,weatherlink.com 1.10,2013-05-10 12:03:00,
2013-05-10 06:17:00,36.6,31.0,29.95,NE,43,0.0,-999.0,81,-99.99,,,0.00,weatherlink.com 1.10,2013-05-10 12:17:00,
2013-05-10 06:33:00,36.0,31.0,30.00,NE,41,2.0,-999.0,83,-99.99,,,0.00,weatherlink.com 1.10,2013-05-10 12:33:00,
2013-05-10 06:48:00,37.2,32.0,30.00,NE,41,3.0,-999.0,81,-99.99,,,0.00,weatherlink.com 1.10,2013-05-10 12:48:00,
2013-05-10 07:04:00,38.6,33.0,29.99,NE,39,3.0,-999.0,79,-99.99,,,0.00,weatherlink.com 1.10,2013-05-10 13:04:00,
2013-05-10 07:19:00,40.8,33.0,29.97,NE,47,1.0,-999.0,75,-99.99,,,0.00,weatherlink.com 1.10,2013-05-10 13:19:00,
2013-05-10 07:34:00,42.2,34.0,29.98,NNE,14,3.0,-999.0,73,-99.99,,,0.00,weatherlink.com 1.10,2013-05-10 13:34:00,
2013-05-10 07:50:00,44.3,34.0,29.98,NE,44,5.0,-999.0,68,-99.99,,,0.00,weatherlink.com 1.10,2013-05-10 13:50:00,
2013-05-10 08:04:00,46.7,35.0,29.97,NNE,32,2.0,-999.0,64,-99.99,,,0.00,weatherlink.com 1.10,2013-05-10 14:04:00,
2013-05-10 08:20:00,49.8,36.0,29.95,ENE,74,2.0,-999.0,59,-99.99,,,0.00,weatherlink.com 1.10,2013-05-10 14:20:00,
2013-05-10 08:35:00,51.9,36.0,29.95,NNE,29,5.0,-999.0,54,-99.99,,,0.00,weatherlink.com 1.10,2013-05-10 14:35:00,
2013-05-10 08:49:00,53.6,36.0,29.93,NNE,32,0.0,-999.0,51,-99.99,,,0.00,weatherlink.com 1.10,2013-05-10 14:49:00,
2013-05-10 09:05:00,54.8,35.0,29.93,North,11,3.0,-999.0,47,-99.99,,,0.00,weatherlink.com 1.10,2013-05-10 15:05:00,
2013-05-10 09:20:00,57.0,36.0,29.92,NNE,30,0.0,-999.0,45,-99.99,,,0.00,weatherlink.com 1.10,2013-05-10 15:20:00,
2013-05-10 09:36:00,58.9,34.0,29.92,ENE,66,0.0,-999.0,40,-99.99,,,0.00,weatherlink.com 1.10,2013-05-10 15:36:00,
2013-05-10 09:50:00,60.1,35.0,29.91,ENE,67,4.0,-999.0,39,-99.99,,,0.00,weatherlink.com 1.10,2013-05-10 15:50:00,
2013-05-10 10:06:00,61.6,34.0,29.90,NE,34,4.0,-999.0,35,-99.99,,,0.00,weatherlink.com 1.10,2013-05-10 16:06:00,
2013-05-10 10:21:00,61.6,34.0,29.90,NNW,333,0.0,-999.0,35,-99.99,,,0.00,weatherlink.com 1.10,2013-05-10 16:21:00,
2013-05-10 10:36:00,61.6,32.0,29.92,ENE,75,0.0,-999.0,33,-99.99,,,0.00,weatherlink.com 1.10,2013-05-10 16:36:00,
2013-05-10 10:51:00,63.1,31.0,29.91,SSW,196,0.0,-999.0,30,-99.99,,,0.00,weatherlink.com 1.10,2013-05-10 16:51:00,
2013-05-10 11:07:00,63.5,30.0,29.90,NNE,31,2.0,-999.0,28,-99.99,,,0.00,weatherlink.com 1.10,2013-05-10 17:07:00,
2013-05-10 11:20:00,63.9,30.0,29.90,North,9,6.0,-999.0,28,-99.99,,,0.00,weatherlink.com 1.10,2013-05-10 17:20:00,
2013-05-10 11:37:00,65.2,31.0,29.91,ESE,113,0.0,-999.0,28,-99.99,,,0.00,weatherlink.com 1.10,2013-05-10 17:37:00,
2013-05-10 11:52:00,66.6,31.0,29.89,NE,35,6.0,-999.0,27,-99.99,,,0.00,weatherlink.com 1.10,2013-05-10 17:52:00,
2013-05-10 12:07:00,65.6,31.0,29.89,NNE,26,0.0,-999.0,27,-99.99,,,0.00,weatherlink.com 1.10,2013-05-10 18:07:00,
2013-05-10 12:22:00,67.4,30.0,29.87,NNE,31,3.0,-999.0,25,-99.99,,,0.00,weatherlink.com 1.10,2013-05-10 18:22:00,
2013-05-10 12:36:00,67.4,29.0,29.87,North,1,2.0,-999.0,24,-99.99,,,0.00,weatherlink.com 1.10,2013-05-10 18:36:00,
2013-05-10 12:52:00,67.1,29.0,29.86,North,4,2.0,-999.0,24,-99.99,,,0.00,weatherlink.com 1.10,2013-05-10 18:52:00,
2013-05-10 13:07:00,66.1,28.0,29.86,WSW,258,5.0,-999.0,24,-99.99,,,0.00,weatherlink.com 1.10,2013-05-10 19:07:00,
2013-05-10 13:23:00,67.6,29.0,29.86,NW,311,0.0,-999.0,24,-99.99,,,0.00,weatherlink.com 1.10,2013-05-10 19:23:00,
2013-05-10 13:38:00,68.1,31.0,29.85,WSW,251,6.0,-999.0,25,-99.99,,,0.00,weatherlink.com 1.10,2013-05-10 19:38:00,
2013-05-10 13:52:00,70.1,29.0,29.84,SSW,213,5.0,-999.0,22,-99.99,,,0.00,weatherlink.com 1.10,2013-05-10 19:52:00,
2013-05-10 14:07:00,70.9,29.0,29.83,North,354,1.0,-999.0,21,-99.99,,,0.00,weatherlink.com 1.10,2013-05-10 20:07:00,
2013-05-10 14:23:00,67.4,30.0,29.84,WSW,257,11.0,-999.0,25,-99.99,,,0.00,weatherlink.com 1.10,2013-05-10 20:23:00,
2013-05-10 14:38:00,65.6,30.0,29.88,North,352,6.0,-999.0,26,-99.99,,,0.00,weatherlink.com 1.10,2013-05-10 20:38:00,
2013-05-10 14:54:00,62.1,31.0,29.89,North,352,8.0,-999.0,31,-99.99,,,0.00,weatherlink.com 1.10,2013-05-10 20:54:00,
2013-05-10 15:07:00,63.4,30.0,29.89,NW,313,14.0,-999.0,28,-99.99,,,0.00,weatherlink.com 1.10,2013-05-10 21:07:00,
2013-05-10 15:23:00,63.7,30.0,29.89,NNW,336,7.0,-999.0,28,-99.99,,,0.00,weatherlink.com 1.10,2013-05-10 21:23:00,
2013-05-10 15:38:00,64.0,28.0,29.89,NNW,344,6.0,-999.0,26,-99.99,,,0.00,weatherlink.com 1.10,2013-05-10 21:38:00,
2013-05-10 15:53:00,64.7,30.0,29.89,North,7,9.0,-999.0,27,-99.99,,,0.00,weatherlink.com 1.10,2013-05-10 21:53:00,
2013-05-10 16:09:00,62.0,33.0,29.89,NE,44,9.0,-999.0,34,-99.99,,,0.00,weatherlink.com 1.10,2013-05-10 22:09:00,
2013-05-10 16:24:00,61.8,31.0,29.90,North,4,11.0,-999.0,32,-99.99,,,0.00,weatherlink.com 1.10,2013-05-10 22:24:00,
2013-05-10 16:40:00,61.8,31.0,29.92,North,0,15.0,-999.0,32,-99.99,,,0.00,weatherlink.com 1.10,2013-05-10 22:40:00,
2013-05-10 16:53:00,61.2,31.0,29.91,North,1,13.0,-999.0,32,-99.99,,,0.00,weatherlink.com 1.10,2013-05-10 22:53:00,
2013-05-10 17:09:00,61.5,30.0,29.92,North,356,8.0,-999.0,31,-99.99,,,0.00,weatherlink.com 1.10,2013-05-10 23:09:00,
2013-05-10 17:25:00,61.5,30.0,29.91,North,359,12.0,-999.0,31,-99.99,,,0.00,weatherlink.com 1.10,2013-05-10 23:25:00,
2013-05-10 17:40:00,61.3,31.0,29.91,NNE,22,7.0,-999.0,32,-99.99,,,0.00,weatherlink.com 1.10,2013-05-10 23:40:00,
2013-05-10 17:54:00,61.3,32.0,29.92,North,1,1.0,-999.0,33,-99.99,,,0.00,weatherlink.com 1.10,2013-05-10 23:54:00,
2013-05-10 18:09:00,61.2,34.0,29.91,North,2,8.0,-999.0,36,-99.99,,,0.00,weatherlink.com 1.10,2013-05-11 00:09:00,
2013-05-10 18:25:00,61.0,35.0,29.92,North,356,4.0,-999.0,38,-99.99,,,0.00,weatherlink.com 1.10,2013-05-11 00:25:00,
2013-05-10 18:40:00,60.9,34.0,29.90,North,359,4.0,-999.0,37,-99.99,,,0.00,weatherlink.com 1.10,2013-05-11 00:40:00,
2013-05-10 18:56:00,60.9,34.0,29.91,North,0,3.0,-999.0,37,-99.99,,,0.00,weatherlink.com 1.10,2013-05-11 00:56:00,
2013-05-10 19:10:00,60.4,37.0,29.92,North,0,4.0,-999.0,42,-99.99,,,0.00,weatherlink.com 1.10,2013-05-11 01:10:00,
2013-05-10 19:25:00,59.8,37.0,29.94,North,354,3.0,-999.0,43,-99.99,,,0.00,weatherlink.com 1.10,2013-05-11 01:25:00,
2013-05-10 19:40:00,59.3,34.0,29.91,NNE,27,0.0,-999.0,39,-99.99,,,0.00,weatherlink.com 1.10,2013-05-11 01:40:00,
2013-05-10 19:55:00,58.7,32.0,29.91,NNE,27,0.0,-999.0,37,-99.99,,,0.00,weatherlink.com 1.10,2013-05-11 01:55:00,
2013-05-10 20:10:00,57.8,32.0,29.92,NNE,27,0.0,-999.0,38,-99.99,,,0.00,weatherlink.com 1.10,2013-05-11 02:10:00,
2013-05-10 20:25:00,56.5,33.0,29.95,NNE,27,2.0,-999.0,41,-99.99,,,0.00,weatherlink.com 1.10,2013-05-11 02:25:00,
2013-05-10 20:40:00,56.0,32.0,29.91,NNE,27,2.0,-999.0,41,-99.99,,,0.00,weatherlink.com 1.10,2013-05-11 02:40:00,
2013-05-10 20:55:00,57.2,32.0,29.91,North,2,2.0,-999.0,39,-99.99,,,0.00,weatherlink.com 1.10,2013-05-11 02:55:00,
2013-05-10 21:10:00,57.2,32.0,29.91,North,2,0.0,-999.0,39,-99.99,,,0.00,weatherlink.com 1.10,2013-05-11 03:10:00,
2013-05-10 21:25:00,56.7,32.0,29.92,North,2,0.0,-999.0,40,-99.99,,,0.00,weatherlink.com 1.10,2013-05-11 03:25:00,
2013-05-10 21:40:00,55.6,33.0,29.91,WSW,251,3.0,-999.0,43,-99.99,,,0.00,weatherlink.com 1.10,2013-05-11 03:40:00,
2013-05-10 21:55:00,55.3,33.0,29.92,WSW,250,0.0,-999.0,43,-99.99,,,0.00,weatherlink.com 1.10,2013-05-11 03:55:00,
2013-05-10 22:10:00,54.5,35.0,29.94,SE,146,4.0,-999.0,49,-99.99,,,0.00,weatherlink.com 1.10,2013-05-11 04:10:00,
2013-05-10 22:25:00,53.8,35.0,29.96,SSE,148,0.0,-999.0,50,-99.99,,,0.00,weatherlink.com 1.10,2013-05-11 04:25:00,
2013-05-10 22:41:00,53.3,35.0,29.96,SSE,160,3.0,-999.0,51,-99.99,,,0.00,weatherlink.com 1.10,2013-05-11 04:41:00,
2013-05-10 22:56:00,52.8,35.0,29.95,SE,146,0.0,-999.0,52,-99.99,,,0.00,weatherlink.com 1.10,2013-05-11 04:56:00,
2013-05-10 23:11:00,52.0,36.0,29.97,SSE,153,1.0,-999.0,54,-99.99,,,0.00,weatherlink.com 1.10,2013-05-11 05:11:00,
2013-05-10 23:26:00,51.6,36.0,29.97,SE,143,3.0,-999.0,55,-99.99,,,0.00,weatherlink.com 1.10,2013-05-11 05:26:00,
2013-05-10 23:41:00,50.8,35.0,29.96,SE,143,0.0,-999.0,56,-99.99,,,0.00,weatherlink.com 1.10,2013-05-11 05:41:00,
2013-05-10 23:56:00,49.9,35.0,29.97,SE,143,0.0,-999.0,57,-99.99,,,0.00,weatherlink.com 1.10,2013-05-11 05:56:00,